Terminal Aerodrome Forecast
Issued by NWS

Home | Current Version | Previous Version | Text Only | Print | Product List | Glossary On
Versions: 1 2 3 4 5 6 7 8 9 10 11 12 13 14 15 16 17 18 19 20 21 22 23 24 25 26
000
FTUS41 KOKX 250840 AAA
TAFHPN
TAF AMD
KHPN 250840Z 2509/2606 36006KT 6SM BR SKC
      TEMPO 2509/2512 VRB04KT 4SM BR
     FM251300 01005KT P6SM SKC
     FM251800 10006KT P6SM FEW250
     FM252100 13006KT P6SM FEW250
     FM260400 VRB03KT 5SM BR SCT005 SCT250
      AMD NOT SKED=

USA.gov is the U.S. government's official web portal to all federal, state and local government web resources and services.